sensor_id;sensor_type;location;lat;lon;timestamp;temperature;humidity
11112;DHT22;5609;49.466;8.468;2024-01-15T00:07:27;1.20;99.90
11112;DHT22;5609;49.466;8.468;2024-01-15T00:09:54;2.00;99.90
11112;DHT22;5609;49.466;8.468;2024-01-15T00:12:21;2.30;99.90
11112;DHT22;5609;49.466;8.468;2024-01-15T00:14:47;2.30;99.90
11112;DHT22;5609;49.466;8.468;2024-01-15T00:17:14;2.40;99.90
11112;DHT22;5609;49.466;8.468;2024-01-15T00:19:41;2.40;99.90
11112;DHT22;5609;49.466;8.468;2024-01-15T00:22:08;2.70;99.90
11112;DHT22;5609;49.466;8.468;2024-01-15T00:24:36;2.70;99.90
11112;DHT22;5609;49.466;8.468;2024-01-15T00:27:03;2.70;99.90
11112;DHT22;5609;49.466;8.468;2024-01-15T00:29:30;2.90;99.90
11112;DHT22;5609;49.466;8.468;2024-01-15T00:31:58;2.90;99.90
11112;DHT22;5609;49.466;8.468;2024-01-15T00:34:24;3.20;99.90
11112;DHT22;5609;49.466;8.468;2024-01-15T00:36:52;3.30;99.90
11112;DHT22;5609;49.466;8.468;2024-01-15T00:39:19;3.30;99.90
11112;DHT22;5609;49.466;8.468;2024-01-15T00:41:47;3.10;99.90
11112;DHT22;5609;49.466;8.468;2024-01-15T00:44:14;3.20;99.90
11112;DHT22;5609;49.466;8.468;2024-01-15T00:46:44;3.30;99.90
11112;DHT22;5609;49.466;8.468;2024-01-15T00:49:11;3.40;99.90
11112;DHT22;5609;49.466;8.468;2024-01-15T00:51:45;3.40;99.90
11112;DHT22;5609;49.466;8.468;2024-01-15T00:54:12;3.50;99.90
11112;DHT22;5609;49.466;8.468;2024-01-15T00:56:39;3.70;99.90
11112;DHT22;5609;49.466;8.468;2024-01-15T00:59:08;3.70;99.90
11112;DHT22;5609;49.466;8.468;2024-01-15T01:01:36;3.80;99.90
11112;DHT22;5609;49.466;8.468;2024-01-15T01:04:03;3.60;99.90
11112;DHT22;5609;49.466;8.468;2024-01-15T01:06:33;3.60;99.90
11112;DHT22;5609;49.466;8.468;2024-01-15T01:08:59;3.50;99.90
11112;DHT22;5609;49.466;8.468;2024-01-15T01:11:26;3.20;99.90
11112;DHT22;5609;49.466;8.468;2024-01-15T01:13:53;3.10;99.90
11112;DHT22;5609;49.466;8.468;2024-01-15T01:16:23;3.10;99.90
11112;DHT22;5609;49.466;8.468;2024-01-15T01:18:50;2.80;99.90
11112;DHT22;5609;49.466;8.468;2024-01-15T01:21:17;2.90;99.90
11112;DHT22;5609;49.466;8.468;2024-01-15T01:23:44;2.90;99.90
11112;DHT22;5609;49.466;8.468;2024-01-15T01:26:16;2.70;99.90
11112;DHT22;5609;49.466;8.468;2024-01-15T01:28:43;2.80;99.90
11112;DHT22;5609;49.466;8.468;2024-01-15T01:31:10;2.80;99.90
11112;DHT22;5609;49.466;8.468;2024-01-15T01:33:39;2.80;99.90
11112;DHT22;5609;49.466;8.468;2024-01-15T01:36:08;3.10;99.90
11112;DHT22;5609;49.466;8.468;2024-01-15T01:38:36;3.20;99.90
11112;DHT22;5609;49.466;8.468;2024-01-15T01:41:03;2.90;99.90
11112;DHT22;5609;49.466;8.468;2024-01-15T01:43:30;3.00;99.90
11112;DHT22;5609;49.466;8.468;2024-01-15T01:45:57;3.40;99.90
11112;DHT22;5609;49.466;8.468;2024-01-15T01:48:27;3.60;99.90
11112;DHT22;5609;49.466;8.468;2024-01-15T01:50:59;3.80;99.90
11112;DHT22;5609;49.466;8.468;2024-01-15T01:53:32;3.90;99.90
11112;DHT22;5609;49.466;8.468;2024-01-15T01:56:03;3.80;99.90
11112;DHT22;5609;49.466;8.468;2024-01-15T01:58:32;4.00;99.90
11112;DHT22;5609;49.466;8.468;2024-01-15T02:01:00;3.80;99.90
11112;DHT22;5609;49.466;8.468;2024-01-15T02:03:27;3.80;99.90
11112;DHT22;5609;49.466;8.468;2024-01-15T02:06:04;3.90;99.90
11112;DHT22;5609;49.466;8.468;2024-01-15T02:08:31;3.80;99.90
11112;DHT22;5609;49.466;8.468;2024-01-15T02:10:58;3.80;99.90
11112;DHT22;5609;49.466;8.468;2024-01-15T02:13:25;3.70;99.90
11112;DHT22;5609;49.466;8.468;2024-01-15T02:15:52;3.80;99.90
11112;DHT22;5609;49.466;8.468;2024-01-15T02:18:18;3.70;99.90
11112;DHT22;5609;49.466;8.468;2024-01-15T02:20:45;3.60;99.90
11112;DHT22;5609;49.466;8.468;2024-01-15T02:23:15;3.90;99.90
11112;DHT22;5609;49.466;8.468;2024-01-15T02:25:43;3.80;99.90
11112;DHT22;5609;49.466;8.468;2024-01-15T02:28:14;3.80;99.90
11112;DHT22;5609;49.466;8.468;2024-01-15T02:30:41;3.90;99.90
11112;DHT22;5609;49.466;8.468;2024-01-15T02:33:10;4.10;99.90
11112;DHT22;5609;49.466;8.468;2024-01-15T02:35:45;4.30;99.90
11112;DHT22;5609;49.466;8.468;2024-01-15T02:38:17;4.40;99.90
11112;DHT22;5609;49.466;8.468;2024-01-15T02:40:45;4.30;99.90
11112;DHT22;5609;49.466;8.468;2024-01-15T02:43:12;4.50;99.90
11112;DHT22;5609;49.466;8.468;2024-01-15T02:45:40;4.30;99.90
11112;DHT22;5609;49.466;8.468;2024-01-15T02:48:07;4.00;99.90
11112;DHT22;5609;49.466;8.468;2024-01-15T02:50:34;3.50;99.90
11112;DHT22;5609;49.466;8.468;2024-01-15T02:53:01;3.40;99.90
11112;DHT22;5609;49.466;8.468;2024-01-15T02:55:30;3.00;99.90
11112;DHT22;5609;49.466;8.468;2024-01-15T02:58:00;2.80;99.90
11112;DHT22;5609;49.466;8.468;2024-01-15T03:00:27;2.90;99.90
11112;DHT22;5609;49.466;8.468;2024-01-15T03:02:55;3.10;99.90
11112;DHT22;5609;49.466;8.468;2024-01-15T03:05:22;3.80;99.90
11112;DHT22;5609;49.466;8.468;2024-01-15T03:07:48;4.20;99.90
11112;DHT22;5609;49.466;8.468;2024-01-15T03:10:14;4.50;99.90
11112;DHT22;5609;49.466;8.468;2024-01-15T03:12:43;4.30;99.90
11112;DHT22;5609;49.466;8.468;2024-01-15T03:15:10;4.50;99.90
11112;DHT22;5609;49.466;8.468;2024-01-15T03:17:36;4.60;99.90
11112;DHT22;5609;49.466;8.468;2024-01-15T03:20:04;4.40;99.90
11112;DHT22;5609;49.466;8.468;2024-01-15T03:22:31;4.40;99.90
11112;DHT22;5609;49.466;8.468;2024-01-15T03:24:58;4.50;99.90
11112;DHT22;5609;49.466;8.468;2024-01-15T03:27:26;4.70;99.90
11112;DHT22;5609;49.466;8.468;2024-01-15T03:29:55;4.80;99.90
11112;DHT22;5609;49.466;8.468;2024-01-15T03:32:22;4.90;99.90
11112;DHT22;5609;49.466;8.468;2024-01-15T03:34:49;5.10;99.90
11112;DHT22;5609;49.466;8.468;2024-01-15T03:37:17;5.00;99.90
11112;DHT22;5609;49.466;8.468;2024-01-15T03:39:45;4.60;99.90
11112;DHT22;5609;49.466;8.468;2024-01-15T03:42:11;4.50;99.90
11112;DHT22;5609;49.466;8.468;2024-01-15T03:44:39;4.30;99.90
11112;DHT22;5609;49.466;8.468;2024-01-15T03:47:07;4.40;99.90
11112;DHT22;5609;49.466;8.468;2024-01-15T03:49:34;4.70;99.90
11112;DHT22;5609;49.466;8.468;2024-01-15T03:52:01;4.80;99.90
11112;DHT22;5609;49.466;8.468;2024-01-15T03:54:28;5.30;99.90
11112;DHT22;5609;49.466;8.468;2024-01-15T03:56:55;5.50;99.90
11112;DHT22;5609;49.466;8.468;2024-01-15T03:59:22;5.40;99.90
11112;DHT22;5609;49.466;8.468;2024-01-15T04:01:49;5.20;99.90
11112;DHT22;5609;49.466;8.468;2024-01-15T04:04:18;4.90;99.90
11112;DHT22;5609;49.466;8.468;2024-01-15T04:06:45;4.90;99.90
11112;DHT22;5609;49.466;8.468;2024-01-15T04:09:12;5.00;99.90
11112;DHT22;5609;49.466;8.468;2024-01-15T04:11:39;4.80;99.90
11112;DHT22;5609;49.466;8.468;2024-01-15T04:14:06;4.90;99.90
11112;DHT22;5609;49.466;8.468;2024-01-15T04:16:33;4.90;99.90
11112;DHT22;5609;49.466;8.468;2024-01-15T04:19:01;5.00;99.90
11112;DHT22;5609;49.466;8.468;2024-01-15T04:21:32;5.00;99.90
11112;DHT22;5609;49.466;8.468;2024-01-15T04:23:58;4.90;99.90
11112;DHT22;5609;49.466;8.468;2024-01-15T04:26:27;4.60;99.90
11112;DHT22;5609;49.466;8.468;2024-01-15T04:28:54;5.00;99.90
11112;DHT22;5609;49.466;8.468;2024-01-15T04:31:22;5.00;99.90
11112;DHT22;5609;49.466;8.468;2024-01-15T04:33:49;4.90;99.90
11112;DHT22;5609;49.466;8.468;2024-01-15T04:36:16;5.10;99.90
11112;DHT22;5609;49.466;8.468;2024-01-15T04:38:46;5.40;99.90
11112;DHT22;5609;49.466;8.468;2024-01-15T04:41:14;5.30;99.90
11112;DHT22;5609;49.466;8.468;2024-01-15T04:43:42;5.10;99.90
11112;DHT22;5609;49.466;8.468;2024-01-15T04:46:10;4.90;99.90
11112;DHT22;5609;49.466;8.468;2024-01-15T04:48:37;5.00;99.90
11112;DHT22;5609;49.466;8.468;2024-01-15T04:51:04;5.10;99.90
11112;DHT22;5609;49.466;8.468;2024-01-15T04:53:32;4.90;99.90
11112;DHT22;5609;49.466;8.468;2024-01-15T04:56:01;4.30;99.90
11112;DHT22;5609;49.466;8.468;2024-01-15T04:58:28;4.60;99.90
11112;DHT22;5609;49.466;8.468;2024-01-15T05:00:55;4.70;99.90
11112;DHT22;5609;49.466;8.468;2024-01-15T05:03:23;4.70;99.90
11112;DHT22;5609;49.466;8.468;2024-01-15T05:05:50;5.00;99.90
11112;DHT22;5609;49.466;8.468;2024-01-15T05:08:17;5.20;99.90
11112;DHT22;5609;49.466;8.468;2024-01-15T05:10:44;5.50;99.90
11112;DHT22;5609;49.466;8.468;2024-01-15T05:13:13;5.50;99.90
11112;DHT22;5609;49.466;8.468;2024-01-15T05:15:40;5.50;99.90
11112;DHT22;5609;49.466;8.468;2024-01-15T05:18:07;5.30;99.90
11112;DHT22;5609;49.466;8.468;2024-01-15T05:20:35;5.30;99.90
11112;DHT22;5609;49.466;8.468;2024-01-15T05:23:01;5.50;99.90
11112;DHT22;5609;49.466;8.468;2024-01-15T05:25:28;5.70;99.90
11112;DHT22;5609;49.466;8.468;2024-01-15T05:27:55;5.70;99.90
11112;DHT22;5609;49.466;8.468;2024-01-15T05:30:23;5.50;99.90
11112;DHT22;5609;49.466;8.468;2024-01-15T05:32:50;5.50;99.90
11112;DHT22;5609;49.466;8.468;2024-01-15T05:35:17;5.40;99.90
11112;DHT22;5609;49.466;8.468;2024-01-15T05:37:45;5.20;99.90
11112;DHT22;5609;49.466;8.468;2024-01-15T05:40:14;5.30;99.90
11112;DHT22;5609;49.466;8.468;2024-01-15T05:42:44;4.80;99.90
11112;DHT22;5609;49.466;8.468;2024-01-15T05:45:11;4.70;99.90
11112;DHT22;5609;49.466;8.468;2024-01-15T05:47:40;4.70;99.90
11112;DHT22;5609;49.466;8.468;2024-01-15T05:50:08;4.80;99.90
11112;DHT22;5609;49.466;8.468;2024-01-15T05:52:36;5.10;99.90
11112;DHT22;5609;49.466;8.468;2024-01-15T05:55:04;5.00;99.90
11112;DHT22;5609;49.466;8.468;2024-01-15T05:57:31;4.70;99.90
11112;DHT22;5609;49.466;8.468;2024-01-15T05:59:58;4.60;99.90
11112;DHT22;5609;49.466;8.468;2024-01-15T06:02:28;4.70;99.90
11112;DHT22;5609;49.466;8.468;2024-01-15T06:04:58;4.60;99.90
11112;DHT22;5609;49.466;8.468;2024-01-15T06:07:26;4.10;99.90
11112;DHT22;5609;49.466;8.468;2024-01-15T06:09:53;3.50;99.90
11112;DHT22;5609;49.466;8.468;2024-01-15T06:12:22;3.00;99.90
11112;DHT22;5609;49.466;8.468;2024-01-15T06:14:50;2.80;99.90
11112;DHT22;5609;49.466;8.468;2024-01-15T06:17:18;2.50;99.90
11112;DHT22;5609;49.466;8.468;2024-01-15T06:19:45;2.30;99.90
11112;DHT22;5609;49.466;8.468;2024-01-15T06:22:15;2.10;99.90
11112;DHT22;5609;49.466;8.468;2024-01-15T06:24:43;2.10;99.90
11112;DHT22;5609;49.466;8.468;2024-01-15T06:27:10;2.00;99.90
11112;DHT22;5609;49.466;8.468;2024-01-15T06:29:44;1.80;99.90
11112;DHT22;5609;49.466;8.468;2024-01-15T06:32:11;1.80;99.90
11112;DHT22;5609;49.466;8.468;2024-01-15T06:34:39;1.80;99.90
11112;DHT22;5609;49.466;8.468;2024-01-15T06:37:06;1.60;99.90
11112;DHT22;5609;49.466;8.468;2024-01-15T06:39:35;1.50;99.90
11112;DHT22;5609;49.466;8.468;2024-01-15T06:42:05;1.40;99.90
11112;DHT22;5609;49.466;8.468;2024-01-15T06:44:32;1.40;99.90
11112;DHT22;5609;49.466;8.468;2024-01-15T06:47:03;1.20;99.90
11112;DHT22;5609;49.466;8.468;2024-01-15T06:49:44;1.20;99.90
11112;DHT22;5609;49.466;8.468;2024-01-15T06:52:15;1.10;99.90
11112;DHT22;5609;49.466;8.468;2024-01-15T06:54:47;1.10;99.90
11112;DHT22;5609;49.466;8.468;2024-01-15T06:57:16;1.10;99.90
11112;DHT22;5609;49.466;8.468;2024-01-15T06:59:45;1.10;99.90
11112;DHT22;5609;49.466;8.468;2024-01-15T07:02:12;1.00;99.90
11112;DHT22;5609;49.466;8.468;2024-01-15T07:04:39;0.90;99.90
11112;DHT22;5609;49.466;8.468;2024-01-15T07:07:06;0.80;99.90
11112;DHT22;5609;49.466;8.468;2024-01-15T07:09:32;0.80;99.90
11112;DHT22;5609;49.466;8.468;2024-01-15T07:12:01;0.90;99.90
11112;DHT22;5609;49.466;8.468;2024-01-15T07:14:31;0.80;99.90
11112;DHT22;5609;49.466;8.468;2024-01-15T07:16:58;0.80;99.90
11112;DHT22;5609;49.466;8.468;2024-01-15T07:19:24;0.80;99.90
11112;DHT22;5609;49.466;8.468;2024-01-15T07:21:53;0.80;99.90
11112;DHT22;5609;49.466;8.468;2024-01-15T07:24:20;0.70;99.90
11112;DHT22;5609;49.466;8.468;2024-01-15T07:26:46;0.80;99.90
11112;DHT22;5609;49.466;8.468;2024-01-15T07:29:17;0.70;99.90
11112;DHT22;5609;49.466;8.468;2024-01-15T07:31:48;0.60;99.90
11112;DHT22;5609;49.466;8.468;2024-01-15T07:34:15;0.60;99.90
11112;DHT22;5609;49.466;8.468;2024-01-15T07:36:43;0.60;99.90
11112;DHT22;5609;49.466;8.468;2024-01-15T07:39:11;0.60;99.90
11112;DHT22;5609;49.466;8.468;2024-01-15T07:41:39;0.60;99.90
11112;DHT22;5609;49.466;8.468;2024-01-15T07:44:06;0.70;99.90
11112;DHT22;5609;49.466;8.468;2024-01-15T07:46:34;0.70;99.90
11112;DHT22;5609;49.466;8.468;2024-01-15T07:49:01;0.60;99.90
11112;DHT22;5609;49.466;8.468;2024-01-15T07:51:31;0.60;99.90
11112;DHT22;5609;49.466;8.468;2024-01-15T07:53:57;0.70;99.90
11112;DHT22;5609;49.466;8.468;2024-01-15T07:56:25;0.70;99.90
11112;DHT22;5609;49.466;8.468;2024-01-15T07:58:53;0.70;99.90
11112;DHT22;5609;49.466;8.468;2024-01-15T08:01:19;0.70;99.90
11112;DHT22;5609;49.466;8.468;2024-01-15T08:03:48;0.80;99.90
11112;DHT22;5609;49.466;8.468;2024-01-15T08:06:14;0.90;99.90
11112;DHT22;5609;49.466;8.468;2024-01-15T08:08:41;0.90;99.90
11112;DHT22;5609;49.466;8.468;2024-01-15T08:11:08;0.90;99.90
11112;DHT22;5609;49.466;8.468;2024-01-15T08:13:35;0.90;99.90
11112;DHT22;5609;49.466;8.468;2024-01-15T08:16:02;1.00;99.90
11112;DHT22;5609;49.466;8.468;2024-01-15T08:18:29;0.90;99.90
11112;DHT22;5609;49.466;8.468;2024-01-15T08:20:57;0.90;99.90
11112;DHT22;5609;49.466;8.468;2024-01-15T08:23:26;0.90;99.90
11112;DHT22;5609;49.466;8.468;2024-01-15T08:25:56;0.80;99.90
11112;DHT22;5609;49.466;8.468;2024-01-15T08:28:23;0.80;99.90
11112;DHT22;5609;49.466;8.468;2024-01-15T08:30:51;0.80;99.90
11112;DHT22;5609;49.466;8.468;2024-01-15T08:33:18;0.80;99.90
11112;DHT22;5609;49.466;8.468;2024-01-15T08:35:46;0.70;99.90
11112;DHT22;5609;49.466;8.468;2024-01-15T08:38:14;0.60;99.90
11112;DHT22;5609;49.466;8.468;2024-01-15T08:40:41;0.60;99.90
11112;DHT22;5609;49.466;8.468;2024-01-15T08:43:08;0.60;99.90
11112;DHT22;5609;49.466;8.468;2024-01-15T08:45:35;0.60;99.90
11112;DHT22;5609;49.466;8.468;2024-01-15T08:48:02;0.70;99.90
11112;DHT22;5609;49.466;8.468;2024-01-15T08:50:32;0.80;99.90
11112;DHT22;5609;49.466;8.468;2024-01-15T08:52:59;0.90;99.90
11112;DHT22;5609;49.466;8.468;2024-01-15T08:55:28;0.90;99.90
11112;DHT22;5609;49.466;8.468;2024-01-15T08:57:55;1.00;99.90
11112;DHT22;5609;49.466;8.468;2024-01-15T09:00:22;1.00;99.90
11112;DHT22;5609;49.466;8.468;2024-01-15T09:02:49;1.00;99.90
11112;DHT22;5609;49.466;8.468;2024-01-15T09:05:18;1.00;99.90
11112;DHT22;5609;49.466;8.468;2024-01-15T09:07:46;1.10;99.90
11112;DHT22;5609;49.466;8.468;2024-01-15T09:10:13;1.10;99.90
11112;DHT22;5609;49.466;8.468;2024-01-15T09:12:41;1.20;99.90
11112;DHT22;5609;49.466;8.468;2024-01-15T09:15:09;1.20;99.90
11112;DHT22;5609;49.466;8.468;2024-01-15T09:17:36;1.20;99.90
11112;DHT22;5609;49.466;8.468;2024-01-15T09:20:07;1.20;99.90
11112;DHT22;5609;49.466;8.468;2024-01-15T09:22:34;1.20;99.90
11112;DHT22;5609;49.466;8.468;2024-01-15T09:25:01;1.30;99.90
11112;DHT22;5609;49.466;8.468;2024-01-15T09:27:28;1.30;99.90
11112;DHT22;5609;49.466;8.468;2024-01-15T09:29:57;1.50;99.90
11112;DHT22;5609;49.466;8.468;2024-01-15T09:32:26;1.40;99.90
11112;DHT22;5609;49.466;8.468;2024-01-15T09:34:53;1.40;99.90
11112;DHT22;5609;49.466;8.468;2024-01-15T09:37:24;1.40;99.90
11112;DHT22;5609;49.466;8.468;2024-01-15T09:39:52;1.50;99.90
11112;DHT22;5609;49.466;8.468;2024-01-15T09:42:22;1.50;99.90
11112;DHT22;5609;49.466;8.468;2024-01-15T09:45:24;1.60;99.90
11112;DHT22;5609;49.466;8.468;2024-01-15T09:47:57;1.50;99.90
11112;DHT22;5609;49.466;8.468;2024-01-15T09:50:29;1.50;99.90
11112;DHT22;5609;49.466;8.468;2024-01-15T09:52:58;1.50;99.90
11112;DHT22;5609;49.466;8.468;2024-01-15T09:55:26;1.60;99.90
11112;DHT22;5609;49.466;8.468;2024-01-15T09:57:55;1.50;99.90
11112;DHT22;5609;49.466;8.468;2024-01-15T10:13:09;1.40;99.90
11112;DHT22;5609;49.466;8.468;2024-01-15T10:15:51;1.50;99.90
11112;DHT22;5609;49.466;8.468;2024-01-15T10:18:33;1.50;99.90
11112;DHT22;5609;49.466;8.468;2024-01-15T10:21:14;1.40;99.90
11112;DHT22;5609;49.466;8.468;2024-01-15T10:23:56;1.50;99.90
11112;DHT22;5609;49.466;8.468;2024-01-15T10:26:37;1.40;99.90
11112;DHT22;5609;49.466;8.468;2024-01-15T10:38:36;1.50;99.90
11112;DHT22;5609;49.466;8.468;2024-01-15T10:41:03;1.70;99.90
11112;DHT22;5609;49.466;8.468;2024-01-15T10:43:30;1.70;99.90
11112;DHT22;5609;49.466;8.468;2024-01-15T10:45:57;1.70;99.90
11112;DHT22;5609;49.466;8.468;2024-01-15T10:48:24;1.70;99.90
11112;DHT22;5609;49.466;8.468;2024-01-15T10:50:52;1.70;99.90
11112;DHT22;5609;49.466;8.468;2024-01-15T10:53:19;1.70;99.90
11112;DHT22;5609;49.466;8.468;2024-01-15T10:55:48;1.70;99.90
11112;DHT22;5609;49.466;8.468;2024-01-15T10:58:17;1.60;99.90
11112;DHT22;5609;49.466;8.468;2024-01-15T11:00:43;1.50;99.90
11112;DHT22;5609;49.466;8.468;2024-01-15T11:03:10;1.60;99.90
11112;DHT22;5609;49.466;8.468;2024-01-15T11:05:37;1.60;99.90
11112;DHT22;5609;49.466;8.468;2024-01-15T11:08:06;1.60;99.90
11112;DHT22;5609;49.466;8.468;2024-01-15T11:10:40;1.60;99.90
11112;DHT22;5609;49.466;8.468;2024-01-15T11:13:14;1.60;99.90
11112;DHT22;5609;49.466;8.468;2024-01-15T11:15:57;1.60;99.90
11112;DHT22;5609;49.466;8.468;2024-01-15T11:18:26;1.60;99.90
11112;DHT22;5609;49.466;8.468;2024-01-15T11:21:21;1.50;99.90
11112;DHT22;5609;49.466;8.468;2024-01-15T11:23:50;1.60;99.90
11112;DHT22;5609;49.466;8.468;2024-01-15T11:26:31;1.50;99.90
11112;DHT22;5609;49.466;8.468;2024-01-15T11:29:01;1.50;99.90
11112;DHT22;5609;49.466;8.468;2024-01-15T11:31:29;1.50;99.90
11112;DHT22;5609;49.466;8.468;2024-01-15T11:33:56;1.50;99.90
11112;DHT22;5609;49.466;8.468;2024-01-15T11:39:41;1.60;99.90
11112;DHT22;5609;49.466;8.468;2024-01-15T11:42:10;1.70;99.90
11112;DHT22;5609;49.466;8.468;2024-01-15T11:44:38;1.70;99.90
11112;DHT22;5609;49.466;8.468;2024-01-15T11:47:06;1.80;99.90
11112;DHT22;5609;49.466;8.468;2024-01-15T11:49:55;1.80;99.90
11112;DHT22;5609;49.466;8.468;2024-01-15T11:52:25;1.90;99.90
11112;DHT22;5609;49.466;8.468;2024-01-15T11:55:10;2.00;99.90
11112;DHT22;5609;49.466;8.468;2024-01-15T11:57:41;2.10;99.90
11112;DHT22;5609;49.466;8.468;2024-01-15T12:00:12;2.20;99.90
11112;DHT22;5609;49.466;8.468;2024-01-15T12:02:40;2.20;99.90
11112;DHT22;5609;49.466;8.468;2024-01-15T12:05:08;2.30;99.90
11112;DHT22;5609;49.466;8.468;2024-01-15T12:07:34;2.30;99.90
11112;DHT22;5609;49.466;8.468;2024-01-15T12:10:01;2.30;99.90
11112;DHT22;5609;49.466;8.468;2024-01-15T12:12:37;2.30;99.90
11112;DHT22;5609;49.466;8.468;2024-01-15T12:15:04;2.20;99.90
11112;DHT22;5609;49.466;8.468;2024-01-15T12:17:33;2.20;99.90
11112;DHT22;5609;49.466;8.468;2024-01-15T12:19:59;2.30;99.90
11112;DHT22;5609;49.466;8.468;2024-01-15T12:22:26;2.20;99.90
11112;DHT22;5609;49.466;8.468;2024-01-15T12:24:53;2.20;99.90
11112;DHT22;5609;49.466;8.468;2024-01-15T12:27:20;2.20;99.90
11112;DHT22;5609;49.466;8.468;2024-01-15T12:29:47;2.20;99.90
11112;DHT22;5609;49.466;8.468;2024-01-15T12:32:14;2.30;99.90
11112;DHT22;5609;49.466;8.468;2024-01-15T12:34:43;2.30;99.90
11112;DHT22;5609;49.466;8.468;2024-01-15T12:37:09;2.30;99.90
11112;DHT22;5609;49.466;8.468;2024-01-15T12:39:37;2.40;99.90
11112;DHT22;5609;49.466;8.468;2024-01-15T12:42:05;2.50;99.90
11112;DHT22;5609;49.466;8.468;2024-01-15T12:44:32;2.60;99.90
11112;DHT22;5609;49.466;8.468;2024-01-15T12:46:58;2.60;99.90
11112;DHT22;5609;49.466;8.468;2024-01-15T12:49:26;2.70;99.90
11112;DHT22;5609;49.466;8.468;2024-01-15T12:51:54;2.80;99.90
11112;DHT22;5609;49.466;8.468;2024-01-15T12:54:23;2.80;99.90
11112;DHT22;5609;49.466;8.468;2024-01-15T12:56:50;2.80;99.90
11112;DHT22;5609;49.466;8.468;2024-01-15T12:59:17;2.60;99.90
11112;DHT22;5609;49.466;8.468;2024-01-15T13:01:43;2.70;99.90
11112;DHT22;5609;49.466;8.468;2024-01-15T13:04:10;2.70;99.90
11112;DHT22;5609;49.466;8.468;2024-01-15T13:06:37;2.70;99.90
11112;DHT22;5609;49.466;8.468;2024-01-15T13:09:05;2.80;99.90
11112;DHT22;5609;49.466;8.468;2024-01-15T13:11:32;2.90;99.90
11112;DHT22;5609;49.466;8.468;2024-01-15T13:13:58;2.80;99.90
11112;DHT22;5609;49.466;8.468;2024-01-15T13:16:25;2.90;99.90
11112;DHT22;5609;49.466;8.468;2024-01-15T13:18:54;2.90;99.90
11112;DHT22;5609;49.466;8.468;2024-01-15T13:21:20;2.90;99.90
11112;DHT22;5609;49.466;8.468;2024-01-15T13:23:47;3.00;99.90
11112;DHT22;5609;49.466;8.468;2024-01-15T13:26:15;3.10;99.90
11112;DHT22;5609;49.466;8.468;2024-01-15T13:28:43;3.10;99.90
11112;DHT22;5609;49.466;8.468;2024-01-15T13:31:10;3.10;99.90
11112;DHT22;5609;49.466;8.468;2024-01-15T13:33:36;3.10;99.90
11112;DHT22;5609;49.466;8.468;2024-01-15T13:36:03;3.20;99.90
11112;DHT22;5609;49.466;8.468;2024-01-15T13:38:33;3.10;99.90
11112;DHT22;5609;49.466;8.468;2024-01-15T13:41:02;3.00;99.90
11112;DHT22;5609;49.466;8.468;2024-01-15T13:43:31;2.90;99.90
11112;DHT22;5609;49.466;8.468;2024-01-15T13:45:58;2.90;99.90
11112;DHT22;5609;49.466;8.468;2024-01-15T13:48:24;2.70;99.90
11112;DHT22;5609;49.466;8.468;2024-01-15T13:50:51;2.80;99.90
11112;DHT22;5609;49.466;8.468;2024-01-15T13:53:18;2.70;99.90
11112;DHT22;5609;49.466;8.468;2024-01-15T13:55:45;2.70;99.90
11112;DHT22;5609;49.466;8.468;2024-01-15T13:58:13;2.70;99.90
11112;DHT22;5609;49.466;8.468;2024-01-15T14:00:41;2.80;99.90
11112;DHT22;5609;49.466;8.468;2024-01-15T14:03:07;2.80;99.90
11112;DHT22;5609;49.466;8.468;2024-01-15T14:05:34;2.80;99.90
11112;DHT22;5609;49.466;8.468;2024-01-15T14:08:00;2.90;99.90
11112;DHT22;5609;49.466;8.468;2024-01-15T14:10:28;2.90;99.90
11112;DHT22;5609;49.466;8.468;2024-01-15T14:12:55;2.90;99.90
11112;DHT22;5609;49.466;8.468;2024-01-15T14:15:22;2.80;99.90
11112;DHT22;5609;49.466;8.468;2024-01-15T14:17:50;2.80;99.90
11112;DHT22;5609;49.466;8.468;2024-01-15T14:20:18;2.80;99.90
11112;DHT22;5609;49.466;8.468;2024-01-15T14:22:44;2.80;99.90
11112;DHT22;5609;49.466;8.468;2024-01-15T14:25:11;2.90;99.90
11112;DHT22;5609;49.466;8.468;2024-01-15T14:27:37;2.90;99.90
11112;DHT22;5609;49.466;8.468;2024-01-15T14:30:05;2.80;99.90
11112;DHT22;5609;49.466;8.468;2024-01-15T14:32:33;2.90;99.90
11112;DHT22;5609;49.466;8.468;2024-01-15T14:35:02;2.90;99.90
11112;DHT22;5609;49.466;8.468;2024-01-15T14:37:30;2.90;99.90
11112;DHT22;5609;49.466;8.468;2024-01-15T14:39:57;2.80;99.90
11112;DHT22;5609;49.466;8.468;2024-01-15T14:42:24;2.80;99.90
11112;DHT22;5609;49.466;8.468;2024-01-15T14:44:51;2.80;99.90
11112;DHT22;5609;49.466;8.468;2024-01-15T14:47:17;2.70;99.90
11112;DHT22;5609;49.466;8.468;2024-01-15T14:49:44;2.70;99.90
11112;DHT22;5609;49.466;8.468;2024-01-15T14:52:12;2.80;99.90
11112;DHT22;5609;49.466;8.468;2024-01-15T14:54:39;2.90;99.90
11112;DHT22;5609;49.466;8.468;2024-01-15T14:57:06;2.90;99.90
11112;DHT22;5609;49.466;8.468;2024-01-15T14:59:33;3.00;99.90
11112;DHT22;5609;49.466;8.468;2024-01-15T15:02:00;2.90;99.90
11112;DHT22;5609;49.466;8.468;2024-01-15T15:04:26;2.90;99.90
11112;DHT22;5609;49.466;8.468;2024-01-15T15:06:54;2.90;99.90
11112;DHT22;5609;49.466;8.468;2024-01-15T15:09:22;3.00;99.90
11112;DHT22;5609;49.466;8.468;2024-01-15T15:11:48;3.10;99.90
11112;DHT22;5609;49.466;8.468;2024-01-15T15:14:16;3.10;99.90
11112;DHT22;5609;49.466;8.468;2024-01-15T15:16:43;3.10;99.90
11112;DHT22;5609;49.466;8.468;2024-01-15T15:19:11;2.90;99.90
11112;DHT22;5609;49.466;8.468;2024-01-15T15:21:38;2.90;99.90
11112;DHT22;5609;49.466;8.468;2024-01-15T15:24:05;2.80;99.90
11112;DHT22;5609;49.466;8.468;2024-01-15T15:26:33;2.90;99.90
11112;DHT22;5609;49.466;8.468;2024-01-15T15:28:59;2.80;99.90
11112;DHT22;5609;49.466;8.468;2024-01-15T15:31:26;2.70;99.90
11112;DHT22;5609;49.466;8.468;2024-01-15T15:33:53;2.60;99.90
11112;DHT22;5609;49.466;8.468;2024-01-15T15:36:20;2.60;99.90
11112;DHT22;5609;49.466;8.468;2024-01-15T15:38:46;2.60;99.90
11112;DHT22;5609;49.466;8.468;2024-01-15T15:41:13;2.50;99.90
11112;DHT22;5609;49.466;8.468;2024-01-15T15:43:41;2.60;99.90
11112;DHT22;5609;49.466;8.468;2024-01-15T15:46:08;2.60;99.90
11112;DHT22;5609;49.466;8.468;2024-01-15T15:48:34;2.60;99.90
11112;DHT22;5609;49.466;8.468;2024-01-15T15:51:01;2.60;99.90
11112;DHT22;5609;49.466;8.468;2024-01-15T15:53:29;2.70;99.90
11112;DHT22;5609;49.466;8.468;2024-01-15T15:55:55;2.50;99.90
11112;DHT22;5609;49.466;8.468;2024-01-15T15:58:22;2.50;99.90
11112;DHT22;5609;49.466;8.468;2024-01-15T16:00:50;2.50;99.90
11112;DHT22;5609;49.466;8.468;2024-01-15T16:03:17;2.40;99.90
11112;DHT22;5609;49.466;8.468;2024-01-15T16:05:44;2.30;99.90
11112;DHT22;5609;49.466;8.468;2024-01-15T16:08:10;2.30;99.90
11112;DHT22;5609;49.466;8.468;2024-01-15T16:10:38;2.20;99.90
11112;DHT22;5609;49.466;8.468;2024-01-15T16:13:04;2.20;99.90
11112;DHT22;5609;49.466;8.468;2024-01-15T16:15:31;2.20;99.90
11112;DHT22;5609;49.466;8.468;2024-01-15T16:18:00;2.20;99.90
11112;DHT22;5609;49.466;8.468;2024-01-15T16:20:26;2.10;99.90
11112;DHT22;5609;49.466;8.468;2024-01-15T16:22:53;2.00;99.90
11112;DHT22;5609;49.466;8.468;2024-01-15T16:25:20;1.90;99.90
11112;DHT22;5609;49.466;8.468;2024-01-15T16:27:46;1.70;99.90
11112;DHT22;5609;49.466;8.468;2024-01-15T16:30:14;1.70;99.90
11112;DHT22;5609;49.466;8.468;2024-01-15T16:32:40;1.70;99.90
11112;DHT22;5609;49.466;8.468;2024-01-15T16:35:08;1.60;99.90
11112;DHT22;5609;49.466;8.468;2024-01-15T16:37:35;1.60;99.90
11112;DHT22;5609;49.466;8.468;2024-01-15T16:40:02;1.60;99.90